sensor_id;sensor_type;location;lat;lon;timestamp;P1;durP1;ratioP1;P2;durP2;ratioP2
18383;SDS011;9318;48.644;9.456;2023-03-14T00:00:39;1.57;;;1.40;;
18383;SDS011;9318;48.644;9.456;2023-03-14T00:03:06;2.83;;;1.70;;
18383;SDS011;9318;48.644;9.456;2023-03-14T00:05:33;1.77;;;1.50;;
18383;SDS011;9318;48.644;9.456;2023-03-14T00:08:00;1.67;;;1.57;;
18383;SDS011;9318;48.644;9.456;2023-03-14T00:10:28;2.17;;;1.70;;
18383;SDS011;9318;48.644;9.456;2023-03-14T00:12:55;2.03;;;1.60;;
18383;SDS011;9318;48.644;9.456;2023-03-14T00:15:22;2.13;;;1.93;;
18383;SDS011;9318;48.644;9.456;2023-03-14T00:17:48;2.90;;;1.90;;
18383;SDS011;9318;48.644;9.456;2023-03-14T00:20:15;2.63;;;1.60;;
18383;SDS011;9318;48.644;9.456;2023-03-14T00:22:42;1.90;;;1.80;;
18383;SDS011;9318;48.644;9.456;2023-03-14T00:25:09;1.70;;;1.60;;
18383;SDS011;9318;48.644;9.456;2023-03-14T00:27:38;2.43;;;1.80;;
18383;SDS011;9318;48.644;9.456;2023-03-14T00:30:05;2.03;;;1.70;;
18383;SDS011;9318;48.644;9.456;2023-03-14T00:32:33;1.73;;;1.63;;
18383;SDS011;9318;48.644;9.456;2023-03-14T00:35:00;1.53;;;1.43;;
18383;SDS011;9318;48.644;9.456;2023-03-14T00:37:28;1.60;;;1.50;;
18383;SDS011;9318;48.644;9.456;2023-03-14T00:39:55;1.60;;;1.50;;
18383;SDS011;9318;48.644;9.456;2023-03-14T00:42:23;1.40;;;1.30;;
18383;SDS011;9318;48.644;9.456;2023-03-14T00:44:51;1.50;;;1.40;;
18383;SDS011;9318;48.644;9.456;2023-03-14T00:47:18;1.57;;;1.30;;
18383;SDS011;9318;48.644;9.456;2023-03-14T00:49:45;1.60;;;1.50;;
18383;SDS011;9318;48.644;9.456;2023-03-14T00:52:11;1.50;;;1.40;;
18383;SDS011;9318;48.644;9.456;2023-03-14T00:54:38;1.70;;;1.40;;
18383;SDS011;9318;48.644;9.456;2023-03-14T00:57:05;1.40;;;1.30;;
18383;SDS011;9318;48.644;9.456;2023-03-14T00:59:32;2.50;;;1.43;;
18383;SDS011;9318;48.644;9.456;2023-03-14T01:02:00;1.60;;;1.50;;
18383;SDS011;9318;48.644;9.456;2023-03-14T01:04:26;1.70;;;1.30;;
18383;SDS011;9318;48.644;9.456;2023-03-14T01:06:55;1.50;;;1.40;;
18383;SDS011;9318;48.644;9.456;2023-03-14T01:09:22;1.30;;;1.30;;
18383;SDS011;9318;48.644;9.456;2023-03-14T01:11:48;1.53;;;1.43;;
18383;SDS011;9318;48.644;9.456;2023-03-14T01:14:15;1.50;;;1.40;;
18383;SDS011;9318;48.644;9.456;2023-03-14T01:16:42;1.60;;;1.50;;
18383;SDS011;9318;48.644;9.456;2023-03-14T01:19:10;1.40;;;1.40;;
18383;SDS011;9318;48.644;9.456;2023-03-14T01:21:37;1.47;;;1.37;;
18383;SDS011;9318;48.644;9.456;2023-03-14T01:24:04;1.80;;;1.30;;
18383;SDS011;9318;48.644;9.456;2023-03-14T01:26:33;1.30;;;1.20;;
18383;SDS011;9318;48.644;9.456;2023-03-14T01:29:00;1.20;;;1.20;;
18383;SDS011;9318;48.644;9.456;2023-03-14T01:31:28;1.10;;;1.10;;
18383;SDS011;9318;48.644;9.456;2023-03-14T01:33:55;1.50;;;1.40;;
18383;SDS011;9318;48.644;9.456;2023-03-14T01:36:23;2.67;;;1.40;;
18383;SDS011;9318;48.644;9.456;2023-03-14T01:38:50;3.13;;;1.50;;
18383;SDS011;9318;48.644;9.456;2023-03-14T01:41:18;1.60;;;1.50;;
18383;SDS011;9318;48.644;9.456;2023-03-14T01:43:46;1.63;;;1.53;;
18383;SDS011;9318;48.644;9.456;2023-03-14T01:46:19;1.80;;;1.40;;
18383;SDS011;9318;48.644;9.456;2023-03-14T01:48:57;1.20;;;1.20;;
18383;SDS011;9318;48.644;9.456;2023-03-14T01:51:31;1.97;;;1.40;;
18383;SDS011;9318;48.644;9.456;2023-03-14T01:54:05;1.30;;;1.30;;
18383;SDS011;9318;48.644;9.456;2023-03-14T01:56:36;1.27;;;1.27;;
18383;SDS011;9318;48.644;9.456;2023-03-14T01:59:05;2.00;;;1.40;;
18383;SDS011;9318;48.644;9.456;2023-03-14T02:01:34;1.40;;;1.30;;
18383;SDS011;9318;48.644;9.456;2023-03-14T02:04:02;1.70;;;1.50;;
18383;SDS011;9318;48.644;9.456;2023-03-14T02:06:33;1.30;;;1.20;;
18383;SDS011;9318;48.644;9.456;2023-03-14T02:09:07;1.40;;;1.30;;
18383;SDS011;9318;48.644;9.456;2023-03-14T02:11:34;1.50;;;1.40;;
18383;SDS011;9318;48.644;9.456;2023-03-14T02:14:00;1.90;;;1.80;;
18383;SDS011;9318;48.644;9.456;2023-03-14T02:16:28;1.70;;;1.60;;
18383;SDS011;9318;48.644;9.456;2023-03-14T02:18:56;1.77;;;1.30;;
18383;SDS011;9318;48.644;9.456;2023-03-14T02:21:23;2.93;;;1.57;;
18383;SDS011;9318;48.644;9.456;2023-03-14T02:24:04;1.40;;;1.40;;
18383;SDS011;9318;48.644;9.456;2023-03-14T02:26:38;1.80;;;1.50;;
18383;SDS011;9318;48.644;9.456;2023-03-14T02:29:09;1.60;;;1.50;;
18383;SDS011;9318;48.644;9.456;2023-03-14T02:31:36;1.67;;;1.40;;
18383;SDS011;9318;48.644;9.456;2023-03-14T02:34:03;1.30;;;1.30;;
18383;SDS011;9318;48.644;9.456;2023-03-14T02:36:30;1.53;;;1.43;;
18383;SDS011;9318;48.644;9.456;2023-03-14T02:39:00;1.47;;;1.37;;
18383;SDS011;9318;48.644;9.456;2023-03-14T02:41:33;1.30;;;1.30;;
18383;SDS011;9318;48.644;9.456;2023-03-14T02:44:00;1.63;;;1.30;;
18383;SDS011;9318;48.644;9.456;2023-03-14T02:46:28;1.67;;;1.40;;
18383;SDS011;9318;48.644;9.456;2023-03-14T02:48:56;1.57;;;1.47;;
18383;SDS011;9318;48.644;9.456;2023-03-14T02:51:27;1.30;;;1.30;;
18383;SDS011;9318;48.644;9.456;2023-03-14T02:53:55;1.20;;;1.20;;
18383;SDS011;9318;48.644;9.456;2023-03-14T02:56:22;1.50;;;1.40;;
18383;SDS011;9318;48.644;9.456;2023-03-14T02:58:49;1.83;;;1.40;;
18383;SDS011;9318;48.644;9.456;2023-03-14T03:01:16;1.73;;;1.20;;
18383;SDS011;9318;48.644;9.456;2023-03-14T03:03:44;1.47;;;1.40;;
18383;SDS011;9318;48.644;9.456;2023-03-14T03:06:11;1.20;;;1.20;;
18383;SDS011;9318;48.644;9.456;2023-03-14T03:08:37;1.40;;;1.40;;
18383;SDS011;9318;48.644;9.456;2023-03-14T03:11:04;1.20;;;1.20;;
18383;SDS011;9318;48.644;9.456;2023-03-14T03:13:32;1.60;;;1.50;;
18383;SDS011;9318;48.644;9.456;2023-03-14T03:15:59;1.33;;;1.30;;
18383;SDS011;9318;48.644;9.456;2023-03-14T03:18:25;1.40;;;1.30;;
18383;SDS011;9318;48.644;9.456;2023-03-14T03:20:54;2.33;;;1.50;;
18383;SDS011;9318;48.644;9.456;2023-03-14T03:23:20;1.53;;;1.43;;
18383;SDS011;9318;48.644;9.456;2023-03-14T03:25:48;1.43;;;1.43;;
18383;SDS011;9318;48.644;9.456;2023-03-14T03:28:15;1.30;;;1.30;;
18383;SDS011;9318;48.644;9.456;2023-03-14T03:30:42;1.60;;;1.40;;
18383;SDS011;9318;48.644;9.456;2023-03-14T03:33:09;2.80;;;1.60;;
18383;SDS011;9318;48.644;9.456;2023-03-14T03:35:41;1.70;;;1.40;;
18383;SDS011;9318;48.644;9.456;2023-03-14T03:38:11;1.40;;;1.30;;
18383;SDS011;9318;48.644;9.456;2023-03-14T03:40:37;2.17;;;1.40;;
18383;SDS011;9318;48.644;9.456;2023-03-14T03:43:04;1.40;;;1.30;;
18383;SDS011;9318;48.644;9.456;2023-03-14T03:45:31;2.50;;;1.50;;
18383;SDS011;9318;48.644;9.456;2023-03-14T03:47:58;1.67;;;1.57;;
18383;SDS011;9318;48.644;9.456;2023-03-14T03:50:25;3.90;;;1.60;;
18383;SDS011;9318;48.644;9.456;2023-03-14T03:52:51;2.03;;;1.73;;
18383;SDS011;9318;48.644;9.456;2023-03-14T03:55:19;1.63;;;1.53;;
18383;SDS011;9318;48.644;9.456;2023-03-14T03:57:46;1.87;;;1.70;;
18383;SDS011;9318;48.644;9.456;2023-03-14T04:00:13;4.87;;;1.70;;
18383;SDS011;9318;48.644;9.456;2023-03-14T04:02:40;3.63;;;1.70;;
18383;SDS011;9318;48.644;9.456;2023-03-14T04:05:07;2.23;;;1.60;;
18383;SDS011;9318;48.644;9.456;2023-03-14T04:07:34;3.10;;;1.70;;
18383;SDS011;9318;48.644;9.456;2023-03-14T04:10:01;3.43;;;1.70;;
18383;SDS011;9318;48.644;9.456;2023-03-14T04:12:29;1.93;;;1.70;;
18383;SDS011;9318;48.644;9.456;2023-03-14T04:14:56;4.13;;;1.67;;
18383;SDS011;9318;48.644;9.456;2023-03-14T04:17:22;1.77;;;1.60;;
18383;SDS011;9318;48.644;9.456;2023-03-14T04:19:49;3.50;;;1.60;;
18383;SDS011;9318;48.644;9.456;2023-03-14T04:22:19;2.93;;;1.70;;
18383;SDS011;9318;48.644;9.456;2023-03-14T04:24:45;2.90;;;1.50;;
18383;SDS011;9318;48.644;9.456;2023-03-14T04:27:12;3.23;;;1.60;;
18383;SDS011;9318;48.644;9.456;2023-03-14T04:29:41;4.83;;;1.53;;
18383;SDS011;9318;48.644;9.456;2023-03-14T04:32:08;7.07;;;1.80;;
18383;SDS011;9318;48.644;9.456;2023-03-14T04:34:35;2.83;;;1.90;;
18383;SDS011;9318;48.644;9.456;2023-03-14T04:37:01;3.03;;;1.50;;
18383;SDS011;9318;48.644;9.456;2023-03-14T04:39:28;3.33;;;1.83;;
18383;SDS011;9318;48.644;9.456;2023-03-14T04:41:55;5.03;;;1.80;;
18383;SDS011;9318;48.644;9.456;2023-03-14T04:44:22;3.93;;;1.70;;
18383;SDS011;9318;48.644;9.456;2023-03-14T04:46:50;4.23;;;1.50;;
18383;SDS011;9318;48.644;9.456;2023-03-14T04:49:16;2.73;;;1.70;;
18383;SDS011;9318;48.644;9.456;2023-03-14T04:51:43;6.63;;;1.90;;
18383;SDS011;9318;48.644;9.456;2023-03-14T04:54:10;2.37;;;1.87;;
18383;SDS011;9318;48.644;9.456;2023-03-14T04:56:37;3.70;;;1.80;;
18383;SDS011;9318;48.644;9.456;2023-03-14T04:59:04;3.03;;;1.60;;
18383;SDS011;9318;48.644;9.456;2023-03-14T05:01:30;2.07;;;1.60;;
18383;SDS011;9318;48.644;9.456;2023-03-14T05:03:59;3.73;;;1.70;;
18383;SDS011;9318;48.644;9.456;2023-03-14T05:06:25;3.53;;;1.80;;
18383;SDS011;9318;48.644;9.456;2023-03-14T05:08:52;1.73;;;1.63;;
18383;SDS011;9318;48.644;9.456;2023-03-14T05:11:19;2.77;;;1.70;;
18383;SDS011;9318;48.644;9.456;2023-03-14T05:13:46;3.97;;;1.70;;
18383;SDS011;9318;48.644;9.456;2023-03-14T05:16:12;4.53;;;1.90;;
18383;SDS011;9318;48.644;9.456;2023-03-14T05:18:39;2.53;;;1.50;;
18383;SDS011;9318;48.644;9.456;2023-03-14T05:21:07;3.27;;;1.77;;
18383;SDS011;9318;48.644;9.456;2023-03-14T05:23:34;4.97;;;1.80;;
18383;SDS011;9318;48.644;9.456;2023-03-14T05:26:01;3.93;;;1.60;;
18383;SDS011;9318;48.644;9.456;2023-03-14T05:28:27;2.67;;;1.70;;
18383;SDS011;9318;48.644;9.456;2023-03-14T05:30:54;1.90;;;1.70;;
18383;SDS011;9318;48.644;9.456;2023-03-14T05:33:21;3.57;;;1.70;;
18383;SDS011;9318;48.644;9.456;2023-03-14T05:35:48;4.23;;;1.73;;
18383;SDS011;9318;48.644;9.456;2023-03-14T05:38:16;3.77;;;1.77;;
18383;SDS011;9318;48.644;9.456;2023-03-14T05:40:44;6.30;;;2.37;;
18383;SDS011;9318;48.644;9.456;2023-03-14T05:43:11;2.20;;;1.73;;
18383;SDS011;9318;48.644;9.456;2023-03-14T05:45:38;5.93;;;2.03;;
18383;SDS011;9318;48.644;9.456;2023-03-14T05:48:05;4.37;;;1.70;;
18383;SDS011;9318;48.644;9.456;2023-03-14T05:50:32;3.77;;;2.40;;
18383;SDS011;9318;48.644;9.456;2023-03-14T05:52:58;4.93;;;2.00;;
18383;SDS011;9318;48.644;9.456;2023-03-14T05:55:27;3.60;;;2.17;;
18383;SDS011;9318;48.644;9.456;2023-03-14T05:57:53;4.40;;;2.07;;
18383;SDS011;9318;48.644;9.456;2023-03-14T06:00:21;2.17;;;1.77;;
18383;SDS011;9318;48.644;9.456;2023-03-14T06:02:48;3.93;;;1.93;;
18383;SDS011;9318;48.644;9.456;2023-03-14T06:05:15;4.00;;;1.80;;
18383;SDS011;9318;48.644;9.456;2023-03-14T06:07:42;5.03;;;2.00;;
18383;SDS011;9318;48.644;9.456;2023-03-14T06:10:09;4.33;;;2.03;;
18383;SDS011;9318;48.644;9.456;2023-03-14T06:12:37;3.90;;;1.90;;
18383;SDS011;9318;48.644;9.456;2023-03-14T06:15:05;3.73;;;1.70;;
18383;SDS011;9318;48.644;9.456;2023-03-14T06:17:32;3.47;;;1.70;;
18383;SDS011;9318;48.644;9.456;2023-03-14T06:19:59;1.97;;;1.60;;
18383;SDS011;9318;48.644;9.456;2023-03-14T06:22:26;3.07;;;1.77;;
18383;SDS011;9318;48.644;9.456;2023-03-14T06:24:52;6.00;;;1.87;;
18383;SDS011;9318;48.644;9.456;2023-03-14T06:27:19;6.73;;;1.80;;
18383;SDS011;9318;48.644;9.456;2023-03-14T06:29:47;3.73;;;1.70;;
18383;SDS011;9318;48.644;9.456;2023-03-14T06:32:14;6.73;;;2.40;;
18383;SDS011;9318;48.644;9.456;2023-03-14T06:34:41;4.23;;;2.23;;
18383;SDS011;9318;48.644;9.456;2023-03-14T06:37:07;5.13;;;2.37;;
18383;SDS011;9318;48.644;9.456;2023-03-14T06:39:34;8.47;;;2.17;;
18383;SDS011;9318;48.644;9.456;2023-03-14T06:42:02;3.80;;;1.80;;
18383;SDS011;9318;48.644;9.456;2023-03-14T06:44:29;2.97;;;1.50;;
18383;SDS011;9318;48.644;9.456;2023-03-14T06:46:57;4.70;;;1.70;;
18383;SDS011;9318;48.644;9.456;2023-03-14T06:49:24;5.27;;;1.90;;
18383;SDS011;9318;48.644;9.456;2023-03-14T06:51:51;3.13;;;1.90;;
18383;SDS011;9318;48.644;9.456;2023-03-14T06:54:17;5.53;;;1.97;;
18383;SDS011;9318;48.644;9.456;2023-03-14T06:56:44;4.47;;;1.90;;
18383;SDS011;9318;48.644;9.456;2023-03-14T06:59:11;3.53;;;1.90;;
18383;SDS011;9318;48.644;9.456;2023-03-14T07:01:38;4.87;;;1.57;;
18383;SDS011;9318;48.644;9.456;2023-03-14T07:04:06;2.40;;;1.50;;
18383;SDS011;9318;48.644;9.456;2023-03-14T07:06:34;1.97;;;1.37;;
18383;SDS011;9318;48.644;9.456;2023-03-14T07:09:01;3.13;;;1.50;;
18383;SDS011;9318;48.644;9.456;2023-03-14T07:11:28;3.60;;;1.60;;
18383;SDS011;9318;48.644;9.456;2023-03-14T07:13:54;4.90;;;1.47;;
18383;SDS011;9318;48.644;9.456;2023-03-14T07:16:21;2.23;;;1.33;;
18383;SDS011;9318;48.644;9.456;2023-03-14T07:18:48;3.37;;;1.80;;
18383;SDS011;9318;48.644;9.456;2023-03-14T07:21:16;4.33;;;1.83;;
18383;SDS011;9318;48.644;9.456;2023-03-14T07:23:43;4.00;;;1.60;;
18383;SDS011;9318;48.644;9.456;2023-03-14T07:26:10;1.83;;;1.40;;
18383;SDS011;9318;48.644;9.456;2023-03-14T07:28:36;2.27;;;1.57;;
18383;SDS011;9318;48.644;9.456;2023-03-14T07:31:03;3.67;;;1.40;;
18383;SDS011;9318;48.644;9.456;2023-03-14T07:33:30;2.53;;;1.42;;
18383;SDS011;9318;48.644;9.456;2023-03-14T07:35:57;2.33;;;1.30;;
18383;SDS011;9318;48.644;9.456;2023-03-14T07:38:26;2.33;;;1.25;;
18383;SDS011;9318;48.644;9.456;2023-03-14T07:40:57;2.88;;;1.50;;
18383;SDS011;9318;48.644;9.456;2023-03-14T07:43:25;5.25;;;1.52;;
18383;SDS011;9318;48.644;9.456;2023-03-14T07:45:51;2.08;;;1.10;;
18383;SDS011;9318;48.644;9.456;2023-03-14T07:48:18;3.30;;;1.13;;
18383;SDS011;9318;48.644;9.456;2023-03-14T07:50:47;3.53;;;1.35;;
18383;SDS011;9318;48.644;9.456;2023-03-14T07:53:14;2.42;;;1.00;;
18383;SDS011;9318;48.644;9.456;2023-03-14T07:55:43;1.20;;;1.08;;
18383;SDS011;9318;48.644;9.456;2023-03-14T07:58:10;3.53;;;1.40;;
18383;SDS011;9318;48.644;9.456;2023-03-14T08:00:37;2.67;;;0.90;;
18383;SDS011;9318;48.644;9.456;2023-03-14T08:03:04;2.47;;;1.27;;
18383;SDS011;9318;48.644;9.456;2023-03-14T08:05:30;2.55;;;1.48;;
18383;SDS011;9318;48.644;9.456;2023-03-14T08:08:00;1.85;;;1.15;;
18383;SDS011;9318;48.644;9.456;2023-03-14T08:10:26;2.10;;;1.40;;
18383;SDS011;9318;48.644;9.456;2023-03-14T08:12:55;2.80;;;1.33;;
18383;SDS011;9318;48.644;9.456;2023-03-14T08:15:23;3.10;;;1.40;;
18383;SDS011;9318;48.644;9.456;2023-03-14T08:17:50;1.70;;;1.00;;
18383;SDS011;9318;48.644;9.456;2023-03-14T08:20:19;3.70;;;1.35;;
18383;SDS011;9318;48.644;9.456;2023-03-14T08:22:46;2.72;;;1.27;;
18383;SDS011;9318;48.644;9.456;2023-03-14T08:25:13;2.15;;;1.17;;
18383;SDS011;9318;48.644;9.456;2023-03-14T08:27:40;3.90;;;1.10;;
18383;SDS011;9318;48.644;9.456;2023-03-14T08:30:10;1.38;;;1.00;;
18383;SDS011;9318;48.644;9.456;2023-03-14T08:32:38;1.70;;;1.30;;
18383;SDS011;9318;48.644;9.456;2023-03-14T08:35:06;1.33;;;1.20;;
18383;SDS011;9318;48.644;9.456;2023-03-14T08:37:33;3.20;;;1.48;;
18383;SDS011;9318;48.644;9.456;2023-03-14T08:40:01;3.00;;;1.48;;
18383;SDS011;9318;48.644;9.456;2023-03-14T08:42:31;1.77;;;1.10;;
18383;SDS011;9318;48.644;9.456;2023-03-14T08:44:58;1.58;;;1.23;;
18383;SDS011;9318;48.644;9.456;2023-03-14T08:47:26;2.40;;;1.10;;
18383;SDS011;9318;48.644;9.456;2023-03-14T08:49:52;2.00;;;1.33;;
18383;SDS011;9318;48.644;9.456;2023-03-14T08:52:19;3.40;;;1.20;;
18383;SDS011;9318;48.644;9.456;2023-03-14T08:54:46;3.17;;;1.30;;
18383;SDS011;9318;48.644;9.456;2023-03-14T08:57:13;2.17;;;1.10;;
18383;SDS011;9318;48.644;9.456;2023-03-14T08:59:39;4.07;;;1.35;;
18383;SDS011;9318;48.644;9.456;2023-03-14T09:02:08;3.75;;;1.02;;
18383;SDS011;9318;48.644;9.456;2023-03-14T09:04:37;1.77;;;1.20;;
18383;SDS011;9318;48.644;9.456;2023-03-14T09:07:04;3.83;;;1.25;;
18383;SDS011;9318;48.644;9.456;2023-03-14T09:09:31;2.53;;;1.27;;
18383;SDS011;9318;48.644;9.456;2023-03-14T09:11:58;1.27;;;1.00;;
18383;SDS011;9318;48.644;9.456;2023-03-14T09:14:25;2.15;;;1.20;;
18383;SDS011;9318;48.644;9.456;2023-03-14T09:16:52;2.07;;;1.17;;
18383;SDS011;9318;48.644;9.456;2023-03-14T09:19:18;1.00;;;1.00;;
18383;SDS011;9318;48.644;9.456;2023-03-14T09:21:46;1.00;;;1.00;;
18383;SDS011;9318;48.644;9.456;2023-03-14T09:24:13;1.93;;;1.10;;
18383;SDS011;9318;48.644;9.456;2023-03-14T09:26:40;1.50;;;1.23;;
18383;SDS011;9318;48.644;9.456;2023-03-14T09:29:07;1.10;;;1.00;;
18383;SDS011;9318;48.644;9.456;2023-03-14T09:31:34;1.10;;;1.10;;
18383;SDS011;9318;48.644;9.456;2023-03-14T09:34:01;1.40;;;1.30;;
18383;SDS011;9318;48.644;9.456;2023-03-14T09:36:28;3.20;;;1.10;;
18383;SDS011;9318;48.644;9.456;2023-03-14T09:38:56;1.37;;;1.27;;
18383;SDS011;9318;48.644;9.456;2023-03-14T09:41:24;1.40;;;1.30;;
18383;SDS011;9318;48.644;9.456;2023-03-14T09:43:55;1.00;;;1.00;;
18383;SDS011;9318;48.644;9.456;2023-03-14T09:46:28;2.10;;;1.30;;
18383;SDS011;9318;48.644;9.456;2023-03-14T09:48:56;1.33;;;1.23;;
18383;SDS011;9318;48.644;9.456;2023-03-14T09:51:23;1.10;;;1.10;;
18383;SDS011;9318;48.644;9.456;2023-03-14T09:53:51;1.50;;;1.40;;
18383;SDS011;9318;48.644;9.456;2023-03-14T09:56:19;2.47;;;1.37;;
18383;SDS011;9318;48.644;9.456;2023-03-14T09:58:50;1.40;;;1.30;;
18383;SDS011;9318;48.644;9.456;2023-03-14T10:01:22;2.60;;;1.27;;
18383;SDS011;9318;48.644;9.456;2023-03-14T10:03:53;1.53;;;1.10;;
18383;SDS011;9318;48.644;9.456;2023-03-14T10:06:21;1.20;;;1.10;;
18383;SDS011;9318;48.644;9.456;2023-03-14T10:08:51;1.43;;;1.33;;
18383;SDS011;9318;48.644;9.456;2023-03-14T10:11:20;2.53;;;1.13;;
18383;SDS011;9318;48.644;9.456;2023-03-14T10:13:48;3.73;;;1.20;;
18383;SDS011;9318;48.644;9.456;2023-03-14T10:16:16;2.67;;;1.30;;
18383;SDS011;9318;48.644;9.456;2023-03-14T10:18:44;1.37;;;1.27;;
18383;SDS011;9318;48.644;9.456;2023-03-14T10:21:16;3.57;;;1.20;;
18383;SDS011;9318;48.644;9.456;2023-03-14T10:23:46;2.07;;;1.30;;
18383;SDS011;9318;48.644;9.456;2023-03-14T10:26:14;1.10;;;1.10;;
18383;SDS011;9318;48.644;9.456;2023-03-14T10:28:44;2.45;;;1.20;;
18383;SDS011;9318;48.644;9.456;2023-03-14T10:31:12;0.85;;;0.85;;
18383;SDS011;9318;48.644;9.456;2023-03-14T10:33:40;1.77;;;0.90;;
18383;SDS011;9318;48.644;9.456;2023-03-14T10:36:15;4.40;;;1.10;;
18383;SDS011;9318;48.644;9.456;2023-03-14T10:38:46;1.08;;;1.08;;
18383;SDS011;9318;48.644;9.456;2023-03-14T10:41:14;0.90;;;0.90;;
18383;SDS011;9318;48.644;9.456;2023-03-14T10:43:44;0.80;;;0.80;;
18383;SDS011;9318;48.644;9.456;2023-03-14T10:46:15;1.13;;;0.90;;
18383;SDS011;9318;48.644;9.456;2023-03-14T10:48:44;1.10;;;1.00;;
18383;SDS011;9318;48.644;9.456;2023-03-14T10:51:12;1.10;;;1.00;;
18383;SDS011;9318;48.644;9.456;2023-03-14T10:53:46;1.20;;;1.10;;
18383;SDS011;9318;48.644;9.456;2023-03-14T10:56:14;3.03;;;1.30;;
18383;SDS011;9318;48.644;9.456;2023-03-14T10:58:46;1.30;;;1.20;;
18383;SDS011;9318;48.644;9.456;2023-03-14T11:04:08;1.60;;;1.10;;
18383;SDS011;9318;48.644;9.456;2023-03-14T11:06:48;1.90;;;1.30;;
18383;SDS011;9318;48.644;9.456;2023-03-14T11:09:23;4.20;;;1.40;;
18383;SDS011;9318;48.644;9.456;2023-03-14T11:11:54;1.33;;;1.23;;
18383;SDS011;9318;48.644;9.456;2023-03-14T11:14:29;1.50;;;1.20;;
18383;SDS011;9318;48.644;9.456;2023-03-14T11:17:02;3.17;;;1.20;;
18383;SDS011;9318;48.644;9.456;2023-03-14T11:19:54;1.87;;;1.10;;
18383;SDS011;9318;48.644;9.456;2023-03-14T11:22:35;1.00;;;1.00;;
18383;SDS011;9318;48.644;9.456;2023-03-14T11:25:15;2.30;;;1.30;;
18383;SDS011;9318;48.644;9.456;2023-03-14T11:27:52;1.23;;;1.10;;
18383;SDS011;9318;48.644;9.456;2023-03-14T11:30:29;1.07;;;1.07;;
18383;SDS011;9318;48.644;9.456;2023-03-14T11:33:02;2.47;;;1.20;;
18383;SDS011;9318;48.644;9.456;2023-03-14T11:35:34;1.37;;;1.10;;
18383;SDS011;9318;48.644;9.456;2023-03-14T11:38:09;1.30;;;1.20;;
18383;SDS011;9318;48.644;9.456;2023-03-14T11:40:39;1.00;;;1.00;;
18383;SDS011;9318;48.644;9.456;2023-03-14T11:43:09;1.50;;;1.23;;
18383;SDS011;9318;48.644;9.456;2023-03-14T11:45:41;2.50;;;1.10;;
18383;SDS011;9318;48.644;9.456;2023-03-14T11:48:17;1.23;;;1.23;;
18383;SDS011;9318;48.644;9.456;2023-03-14T11:50:49;2.87;;;1.20;;
18383;SDS011;9318;48.644;9.456;2023-03-14T11:53:19;1.10;;;1.10;;
18383;SDS011;9318;48.644;9.456;2023-03-14T11:55:53;1.80;;;1.27;;
18383;SDS011;9318;48.644;9.456;2023-03-14T11:58:20;1.30;;;1.20;;
18383;SDS011;9318;48.644;9.456;2023-03-14T12:00:53;1.10;;;1.10;;
18383;SDS011;9318;48.644;9.456;2023-03-14T12:03:23;1.20;;;1.20;;
18383;SDS011;9318;48.644;9.456;2023-03-14T12:06:02;1.30;;;1.20;;
18383;SDS011;9318;48.644;9.456;2023-03-14T12:08:42;1.10;;;1.10;;
18383;SDS011;9318;48.644;9.456;2023-03-14T12:11:14;1.30;;;1.20;;
18383;SDS011;9318;48.644;9.456;2023-03-14T12:13:47;1.50;;;1.30;;
18383;SDS011;9318;48.644;9.456;2023-03-14T12:16:24;1.47;;;1.40;;
18383;SDS011;9318;48.644;9.456;2023-03-14T12:18:55;1.30;;;1.20;;
18383;SDS011;9318;48.644;9.456;2023-03-14T12:21:22;1.20;;;1.10;;
18383;SDS011;9318;48.644;9.456;2023-03-14T12:24:14;1.10;;;1.10;;
18383;SDS011;9318;48.644;9.456;2023-03-14T12:26:46;1.43;;;1.33;;
18383;SDS011;9318;48.644;9.456;2023-03-14T12:29:18;1.50;;;1.40;;
18383;SDS011;9318;48.644;9.456;2023-03-14T12:31:47;1.23;;;1.20;;
18383;SDS011;9318;48.644;9.456;2023-03-14T12:34:30;1.10;;;1.10;;
18383;SDS011;9318;48.644;9.456;2023-03-14T12:37:03;1.30;;;1.20;;
18383;SDS011;9318;48.644;9.456;2023-03-14T12:39:40;1.00;;;1.00;;
18383;SDS011;9318;48.644;9.456;2023-03-14T12:42:14;1.10;;;1.10;;
18383;SDS011;9318;48.644;9.456;2023-03-14T12:44:48;1.70;;;1.20;;
18383;SDS011;9318;48.644;9.456;2023-03-14T12:50:20;1.27;;;1.17;;
18383;SDS011;9318;48.644;9.456;2023-03-14T12:52:55;3.10;;;1.37;;
18383;SDS011;9318;48.644;9.456;2023-03-14T12:55:44;1.50;;;1.40;;
18383;SDS011;9318;48.644;9.456;2023-03-14T12:58:17;1.50;;;1.40;;
18383;SDS011;9318;48.644;9.456;2023-03-14T13:00:51;1.60;;;1.50;;
18383;SDS011;9318;48.644;9.456;2023-03-14T13:03:23;2.67;;;1.60;;
18383;SDS011;9318;48.644;9.456;2023-03-14T13:05:54;4.87;;;1.90;;
18383;SDS011;9318;48.644;9.456;2023-03-14T13:08:33;2.60;;;1.80;;
18383;SDS011;9318;48.644;9.456;2023-03-14T13:11:04;1.57;;;1.47;;
18383;SDS011;9318;48.644;9.456;2023-03-14T13:13:34;3.00;;;1.60;;
18383;SDS011;9318;48.644;9.456;2023-03-14T13:16:03;1.37;;;1.30;;
18383;SDS011;9318;48.644;9.456;2023-03-14T13:18:34;2.43;;;1.40;;
18383;SDS011;9318;48.644;9.456;2023-03-14T13:21:03;1.63;;;1.50;;
18383;SDS011;9318;48.644;9.456;2023-03-14T13:23:33;4.20;;;1.50;;
18383;SDS011;9318;48.644;9.456;2023-03-14T13:26:01;3.07;;;1.60;;
18383;SDS011;9318;48.644;9.456;2023-03-14T13:28:29;1.73;;;1.60;;
18383;SDS011;9318;48.644;9.456;2023-03-14T13:30:58;2.73;;;1.40;;
18383;SDS011;9318;48.644;9.456;2023-03-14T13:33:28;2.10;;;1.50;;
18383;SDS011;9318;48.644;9.456;2023-03-14T13:35:56;3.30;;;1.60;;
18383;SDS011;9318;48.644;9.456;2023-03-14T13:38:25;2.17;;;1.47;;
18383;SDS011;9318;48.644;9.456;2023-03-14T13:40:53;3.93;;;1.60;;
18383;SDS011;9318;48.644;9.456;2023-03-14T13:43:25;1.40;;;1.30;;
18383;SDS011;9318;48.644;9.456;2023-03-14T13:46:00;1.60;;;1.50;;
18383;SDS011;9318;48.644;9.456;2023-03-14T13:48:29;4.20;;;1.47;;
18383;SDS011;9318;48.644;9.456;2023-03-14T13:51:00;1.73;;;1.63;;
18383;SDS011;9318;48.644;9.456;2023-03-14T13:53:29;3.30;;;1.63;;
18383;SDS011;9318;48.644;9.456;2023-03-14T13:55:57;1.93;;;1.60;;
18383;SDS011;9318;48.644;9.456;2023-03-14T13:58:28;4.67;;;1.60;;
18383;SDS011;9318;48.644;9.456;2023-03-14T14:00:58;4.93;;;1.53;;
18383;SDS011;9318;48.644;9.456;2023-03-14T14:03:31;4.13;;;1.40;;
18383;SDS011;9318;48.644;9.456;2023-03-14T14:06:01;3.87;;;1.70;;
18383;SDS011;9318;48.644;9.456;2023-03-14T14:08:28;2.57;;;1.60;;
18383;SDS011;9318;48.644;9.456;2023-03-14T14:10:57;5.13;;;1.73;;
18383;SDS011;9318;48.644;9.456;2023-03-14T14:13:26;2.13;;;1.40;;
18383;SDS011;9318;48.644;9.456;2023-03-14T14:15:58;1.80;;;1.50;;
18383;SDS011;9318;48.644;9.456;2023-03-14T14:18:27;1.70;;;1.60;;
18383;SDS011;9318;48.644;9.456;2023-03-14T14:20:55;2.73;;;1.57;;
18383;SDS011;9318;48.644;9.456;2023-03-14T14:23:24;2.20;;;1.70;;
18383;SDS011;9318;48.644;9.456;2023-03-14T14:25:54;2.03;;;1.40;;
18383;SDS011;9318;48.644;9.456;2023-03-14T14:28:23;2.47;;;1.60;;
18383;SDS011;9318;48.644;9.456;2023-03-14T14:30:59;3.40;;;1.70;;
18383;SDS011;9318;48.644;9.456;2023-03-14T14:33:28;3.17;;;1.53;;
18383;SDS011;9318;48.644;9.456;2023-03-14T14:35:55;5.47;;;2.07;;
18383;SDS011;9318;48.644;9.456;2023-03-14T14:38:25;7.10;;;2.13;;
18383;SDS011;9318;48.644;9.456;2023-03-14T14:40:58;3.23;;;1.80;;
18383;SDS011;9318;48.644;9.456;2023-03-14T14:43:27;4.23;;;1.67;;
18383;SDS011;9318;48.644;9.456;2023-03-14T14:45:56;3.43;;;1.60;;
18383;SDS011;9318;48.644;9.456;2023-03-14T14:48:24;2.87;;;1.50;;
18383;SDS011;9318;48.644;9.456;2023-03-14T14:50:56;3.43;;;1.70;;
18383;SDS011;9318;48.644;9.456;2023-03-14T14:53:28;4.00;;;1.80;;
18383;SDS011;9318;48.644;9.456;2023-03-14T14:55:57;6.63;;;1.83;;
18383;SDS011;9318;48.644;9.456;2023-03-14T14:58:25;2.63;;;1.70;;
18383;SDS011;9318;48.644;9.456;2023-03-14T15:00:54;4.20;;;1.60;;
18383;SDS011;9318;48.644;9.456;2023-03-14T15:03:26;3.93;;;1.70;;
18383;SDS011;9318;48.644;9.456;2023-03-14T15:05:55;3.43;;;1.77;;
18383;SDS011;9318;48.644;9.456;2023-03-14T15:08:23;5.73;;;1.70;;
18383;SDS011;9318;48.644;9.456;2023-03-14T15:10:52;3.50;;;2.00;;
18383;SDS011;9318;48.644;9.456;2023-03-14T15:13:19;3.17;;;1.70;;
18383;SDS011;9318;48.644;9.456;2023-03-14T15:15:46;4.73;;;1.80;;